sensor_id;sensor_type;location;lat;lon;timestamp;pressure;altitude;pressure_sealevel;temperature;humidity
22964;BME280;11648;49.306;6.934;2023-12-07T00:00:00;98781.69;;;9.31;63.72
22964;BME280;11648;49.306;6.934;2023-12-07T00:02:30;98794.84;;;9.22;64.29
22964;BME280;11648;49.306;6.934;2023-12-07T00:04:57;98794.84;;;9.25;64.24
22964;BME280;11648;49.306;6.934;2023-12-07T00:07:23;98795.69;;;9.20;64.16
22964;BME280;11648;49.306;6.934;2023-12-07T00:09:50;98792.19;;;9.13;64.30
22964;BME280;11648;49.306;6.934;2023-12-07T00:12:18;98786.06;;;9.28;63.92
22964;BME280;11648;49.306;6.934;2023-12-07T00:14:45;98792.19;;;9.36;63.87
22964;BME280;11648;49.306;6.934;2023-12-07T00:17:12;98782.56;;;9.35;63.78
22964;BME280;11648;49.306;6.934;2023-12-07T00:19:40;98782.56;;;9.30;63.71
22964;BME280;11648;49.306;6.934;2023-12-07T00:22:07;98789.59;;;9.37;63.71
22964;BME280;11648;49.306;6.934;2023-12-07T00:24:34;98791.31;;;9.31;63.83
22964;BME280;11648;49.306;6.934;2023-12-07T00:27:01;98792.19;;;9.31;64.18
22964;BME280;11648;49.306;6.934;2023-12-07T00:29:28;98796.56;;;9.31;63.84
22964;BME280;11648;49.306;6.934;2023-12-07T00:31:55;98802.69;;;9.31;64.01
22964;BME280;11648;49.306;6.934;2023-12-07T00:34:22;98796.56;;;9.38;63.50
22964;BME280;11648;49.306;6.934;2023-12-07T00:36:49;98787.81;;;9.32;63.42
22964;BME280;11648;49.306;6.934;2023-12-07T00:39:16;98792.22;;;9.33;63.27
22964;BME280;11648;49.306;6.934;2023-12-07T00:41:43;98794.84;;;9.30;62.98
22964;BME280;11648;49.306;6.934;2023-12-07T00:44:10;98793.06;;;9.27;63.48
22964;BME280;11648;49.306;6.934;2023-12-07T00:46:37;98793.06;;;9.24;63.44
22964;BME280;11648;49.306;6.934;2023-12-07T00:49:04;98790.47;;;9.26;63.37
22964;BME280;11648;49.306;6.934;2023-12-07T00:51:31;98786.94;;;9.24;63.75
22964;BME280;11648;49.306;6.934;2023-12-07T00:53:58;98781.69;;;9.27;63.42
22964;BME280;11648;49.306;6.934;2023-12-07T00:56:25;98779.94;;;9.20;63.38
22964;BME280;11648;49.306;6.934;2023-12-07T00:58:52;98782.56;;;9.20;63.36
22964;BME280;11648;49.306;6.934;2023-12-07T01:01:19;98776.44;;;9.15;63.86
22964;BME280;11648;49.306;6.934;2023-12-07T01:03:46;98779.06;;;9.31;63.10
22964;BME280;11648;49.306;6.934;2023-12-07T01:06:13;98788.69;;;9.34;63.23
22964;BME280;11648;49.306;6.934;2023-12-07T01:08:41;98786.09;;;9.29;62.24
22964;BME280;11648;49.306;6.934;2023-12-07T01:11:08;98783.44;;;9.23;62.67
22964;BME280;11648;49.306;6.934;2023-12-07T01:13:35;98781.69;;;9.16;62.91
22964;BME280;11648;49.306;6.934;2023-12-07T01:16:03;98787.81;;;9.14;63.15
22964;BME280;11648;49.306;6.934;2023-12-07T01:18:30;98790.47;;;9.15;63.10
22964;BME280;11648;49.306;6.934;2023-12-07T01:20:57;98791.31;;;9.25;63.16
22964;BME280;11648;49.306;6.934;2023-12-07T01:23:24;98791.34;;;9.19;63.50
22964;BME280;11648;49.306;6.934;2023-12-07T01:25:50;98797.47;;;9.15;63.13
22964;BME280;11648;49.306;6.934;2023-12-07T01:28:17;98803.59;;;9.14;62.85
22964;BME280;11648;49.306;6.934;2023-12-07T01:30:44;98801.81;;;8.99;63.57
22964;BME280;11648;49.306;6.934;2023-12-07T01:33:11;98806.19;;;8.92;63.43
22964;BME280;11648;49.306;6.934;2023-12-07T01:35:38;98814.09;;;8.97;64.01
22964;BME280;11648;49.306;6.934;2023-12-07T01:38:05;98815.81;;;9.03;63.28
22964;BME280;11648;49.306;6.934;2023-12-07T01:40:32;98821.06;;;8.78;63.27
22964;BME280;11648;49.306;6.934;2023-12-07T01:42:59;98828.09;;;8.93;63.79
22964;BME280;11648;49.306;6.934;2023-12-07T01:45:26;98819.31;;;9.02;63.13
22964;BME280;11648;49.306;6.934;2023-12-07T01:47:53;98825.44;;;8.88;62.75
22964;BME280;11648;49.306;6.934;2023-12-07T01:50:21;98823.69;;;8.89;63.33
22964;BME280;11648;49.306;6.934;2023-12-07T01:52:54;98822.84;;;8.87;63.08
22964;BME280;11648;49.306;6.934;2023-12-07T01:55:24;98824.56;;;8.96;63.61
22964;BME280;11648;49.306;6.934;2023-12-07T01:57:51;98816.69;;;9.02;63.28
22964;BME280;11648;49.306;6.934;2023-12-07T02:00:19;98821.94;;;8.96;63.61
22964;BME280;11648;49.306;6.934;2023-12-07T02:02:46;98816.72;;;8.94;62.92
22964;BME280;11648;49.306;6.934;2023-12-07T02:05:14;98821.09;;;9.01;63.06
22964;BME280;11648;49.306;6.934;2023-12-07T02:07:41;98832.41;;;8.68;63.90
22964;BME280;11648;49.306;6.934;2023-12-07T02:10:10;98831.50;;;8.69;64.16
22964;BME280;11648;49.306;6.934;2023-12-07T02:12:37;98835.06;;;8.82;64.03
22964;BME280;11648;49.306;6.934;2023-12-07T02:15:04;98833.31;;;8.94;63.71
22964;BME280;11648;49.306;6.934;2023-12-07T02:23:17;98832.44;;;8.89;63.23
22964;BME280;11648;49.306;6.934;2023-12-07T02:26:03;98826.31;;;8.95;63.70
22964;BME280;11648;49.306;6.934;2023-12-07T02:28:32;98840.31;;;8.79;63.71
22964;BME280;11648;49.306;6.934;2023-12-07T02:30:59;98830.66;;;8.64;64.24
22964;BME280;11648;49.306;6.934;2023-12-07T02:33:26;98827.13;;;8.53;64.45
22964;BME280;11648;49.306;6.934;2023-12-07T02:35:53;98836.81;;;8.75;64.38
22964;BME280;11648;49.306;6.934;2023-12-07T02:38:22;98834.19;;;8.78;64.10
22964;BME280;11648;49.306;6.934;2023-12-07T02:40:54;98835.00;;;8.61;64.34
22964;BME280;11648;49.306;6.934;2023-12-07T02:43:22;98837.69;;;8.73;63.91
22964;BME280;11648;49.306;6.934;2023-12-07T02:45:49;98834.91;;;8.29;64.71
22964;BME280;11648;49.306;6.934;2023-12-07T02:48:16;98838.41;;;8.29;65.06
22964;BME280;11648;49.306;6.934;2023-12-07T02:50:43;98829.75;;;8.58;64.42
22964;BME280;11648;49.306;6.934;2023-12-07T02:53:10;98827.13;;;8.59;63.85
22964;BME280;11648;49.306;6.934;2023-12-07T02:55:38;98822.81;;;8.75;63.63
22964;BME280;11648;49.306;6.934;2023-12-07T02:58:04;98827.16;;;8.74;63.49
22964;BME280;11648;49.306;6.934;2023-12-07T03:00:33;98822.69;;;8.41;63.81
22964;BME280;11648;49.306;6.934;2023-12-07T03:03:00;98821.81;;;8.35;64.72
22964;BME280;11648;49.306;6.934;2023-12-07T03:05:27;98826.25;;;8.54;64.21
22964;BME280;11648;49.306;6.934;2023-12-07T03:07:54;98821.91;;;8.65;63.87
22964;BME280;11648;49.306;6.934;2023-12-07T03:10:20;98822.78;;;8.72;63.84
22964;BME280;11648;49.306;6.934;2023-12-07T03:12:47;98822.81;;;8.76;63.36
22964;BME280;11648;49.306;6.934;2023-12-07T03:15:14;98815.78;;;8.74;63.61
22964;BME280;11648;49.306;6.934;2023-12-07T03:17:41;98817.53;;;8.72;63.80
22964;BME280;11648;49.306;6.934;2023-12-07T03:20:08;98817.53;;;8.70;63.45
22964;BME280;11648;49.306;6.934;2023-12-07T03:22:36;98807.91;;;8.69;63.96
22964;BME280;11648;49.306;6.934;2023-12-07T03:25:04;98809.63;;;8.55;63.80
22964;BME280;11648;49.306;6.934;2023-12-07T03:27:31;98807.00;;;8.66;63.87
22964;BME280;11648;49.306;6.934;2023-12-07T03:29:57;98802.66;;;8.62;63.73
22964;BME280;11648;49.306;6.934;2023-12-07T03:32:24;98807.91;;;8.69;64.54
22964;BME280;11648;49.306;6.934;2023-12-07T03:34:52;98809.59;;;8.49;64.00
22964;BME280;11648;49.306;6.934;2023-12-07T03:37:18;98810.53;;;8.65;64.06
22964;BME280;11648;49.306;6.934;2023-12-07T03:39:45;98805.28;;;8.65;63.21
22964;BME280;11648;49.306;6.934;2023-12-07T03:42:12;98812.28;;;8.73;63.88
22964;BME280;11648;49.306;6.934;2023-12-07T03:44:59;98810.56;;;8.72;63.76
22964;BME280;11648;49.306;6.934;2023-12-07T03:47:26;98810.56;;;8.72;63.34
22964;BME280;11648;49.306;6.934;2023-12-07T03:49:53;98805.31;;;8.86;63.73
22964;BME280;11648;49.306;6.934;2023-12-07T03:52:20;98812.34;;;8.87;63.29
22964;BME280;11648;49.306;6.934;2023-12-07T03:54:48;98819.34;;;8.94;63.55
22964;BME280;11648;49.306;6.934;2023-12-07T03:57:15;98820.19;;;8.96;63.46
22964;BME280;11648;49.306;6.934;2023-12-07T03:59:41;98818.47;;;8.93;63.41
22964;BME280;11648;49.306;6.934;2023-12-07T04:02:09;98812.31;;;8.82;63.00
22964;BME280;11648;49.306;6.934;2023-12-07T04:04:35;98814.06;;;8.86;63.23
22964;BME280;11648;49.306;6.934;2023-12-07T04:07:02;98812.34;;;8.87;62.81
22964;BME280;11648;49.306;6.934;2023-12-07T04:09:29;98816.69;;;8.91;63.48
22964;BME280;11648;49.306;6.934;2023-12-07T04:11:57;98802.72;;;9.12;62.55
22964;BME280;11648;49.306;6.934;2023-12-07T04:14:24;98797.44;;;9.21;62.27
22964;BME280;11648;49.306;6.934;2023-12-07T04:16:51;98796.56;;;9.34;61.76
22964;BME280;11648;49.306;6.934;2023-12-07T04:19:17;98806.19;;;8.99;62.29
22964;BME280;11648;49.306;6.934;2023-12-07T04:21:44;98798.31;;;8.91;63.23
22964;BME280;11648;49.306;6.934;2023-12-07T04:24:11;98803.53;;;8.80;63.15
22964;BME280;11648;49.306;6.934;2023-12-07T04:26:38;98806.16;;;8.77;63.42
22964;BME280;11648;49.306;6.934;2023-12-07T04:29:05;98805.28;;;8.62;64.13
22964;BME280;11648;49.306;6.934;2023-12-07T04:31:32;98806.06;;;8.29;64.49
22964;BME280;11648;49.306;6.934;2023-12-07T04:33:59;98804.25;;;8.25;64.43
22964;BME280;11648;49.306;6.934;2023-12-07T04:36:26;98807.00;;;8.54;63.54
22964;BME280;11648;49.306;6.934;2023-12-07T04:38:53;98814.84;;;8.55;63.80
22964;BME280;11648;49.306;6.934;2023-12-07T04:41:20;98820.97;;;8.50;64.09
22964;BME280;11648;49.306;6.934;2023-12-07T04:43:47;98822.72;;;8.49;64.24
22964;BME280;11648;49.306;6.934;2023-12-07T04:46:13;98824.47;;;8.49;64.35
22964;BME280;11648;49.306;6.934;2023-12-07T04:48:43;98830.56;;;8.41;64.70
22964;BME280;11648;49.306;6.934;2023-12-07T04:51:10;98824.41;;;8.33;64.15
22964;BME280;11648;49.306;6.934;2023-12-07T04:53:37;98826.09;;;8.18;65.25
22964;BME280;11648;49.306;6.934;2023-12-07T04:56:04;98826.97;;;8.24;64.24
22964;BME280;11648;49.306;6.934;2023-12-07T04:58:31;98830.59;;;8.40;64.44
22964;BME280;11648;49.306;6.934;2023-12-07T05:00:58;98816.63;;;8.50;64.05
22964;BME280;11648;49.306;6.934;2023-12-07T05:03:26;98828.78;;;8.34;64.39
22964;BME280;11648;49.306;6.934;2023-12-07T05:05:53;98824.47;;;8.47;64.41
22964;BME280;11648;49.306;6.934;2023-12-07T05:08:20;98822.75;;;8.54;64.05
22964;BME280;11648;49.306;6.934;2023-12-07T05:10:47;98833.22;;;8.49;64.18
22964;BME280;11648;49.306;6.934;2023-12-07T05:13:14;98838.47;;;8.49;63.65
22964;BME280;11648;49.306;6.934;2023-12-07T05:15:41;98834.94;;;8.39;63.86
22964;BME280;11648;49.306;6.934;2023-12-07T05:18:08;98838.44;;;8.38;64.03
22964;BME280;11648;49.306;6.934;2023-12-07T05:20:35;98850.72;;;8.44;63.77
22964;BME280;11648;49.306;6.934;2023-12-07T05:23:02;98846.31;;;8.40;63.83
22964;BME280;11648;49.306;6.934;2023-12-07T05:25:29;98846.34;;;8.51;64.09
22964;BME280;11648;49.306;6.934;2023-12-07T05:27:56;98846.31;;;8.43;64.24
22964;BME280;11648;49.306;6.934;2023-12-07T05:30:24;98840.25;;;8.55;64.06
22964;BME280;11648;49.306;6.934;2023-12-07T05:32:51;98854.19;;;8.41;63.94
22964;BME280;11648;49.306;6.934;2023-12-07T05:35:18;98840.22;;;8.46;64.46
22964;BME280;11648;49.306;6.934;2023-12-07T05:37:45;98834.06;;;8.45;64.17
22964;BME280;11648;49.306;6.934;2023-12-07T05:40:12;98832.34;;;8.50;63.71
22964;BME280;11648;49.306;6.934;2023-12-07T05:42:39;98835.00;;;8.56;64.05
22964;BME280;11648;49.306;6.934;2023-12-07T05:45:06;98829.75;;;8.61;64.06
22964;BME280;11648;49.306;6.934;2023-12-07T05:47:33;98827.13;;;8.50;63.88
22964;BME280;11648;49.306;6.934;2023-12-07T05:50:01;98821.84;;;8.46;64.38
22964;BME280;11648;49.306;6.934;2023-12-07T05:52:29;98806.06;;;8.29;64.53
22964;BME280;11648;49.306;6.934;2023-12-07T05:54:56;98802.47;;;8.12;64.54
22964;BME280;11648;49.306;6.934;2023-12-07T05:57:24;98803.25;;;8.02;65.43
22964;BME280;11648;49.306;6.934;2023-12-07T05:59:51;98794.53;;;8.00;65.71
22964;BME280;11648;49.306;6.934;2023-12-07T06:02:17;98798.03;;;8.02;65.54
22964;BME280;11648;49.306;6.934;2023-12-07T06:04:45;98802.44;;;8.07;65.33
22964;BME280;11648;49.306;6.934;2023-12-07T06:07:12;98818.13;;;7.97;65.51
22964;BME280;11648;49.306;6.934;2023-12-07T06:09:40;98824.00;;;7.62;66.83
22964;BME280;11648;49.306;6.934;2023-12-07T06:12:08;98819.81;;;7.88;65.47
22964;BME280;11648;49.306;6.934;2023-12-07T06:14:35;98819.81;;;7.85;66.06
22964;BME280;11648;49.306;6.934;2023-12-07T06:17:01;98813.66;;;7.82;65.80
22964;BME280;11648;49.306;6.934;2023-12-07T06:19:28;98829.28;;;7.65;66.49
22964;BME280;11648;49.306;6.934;2023-12-07T06:21:56;98831.16;;;7.90;65.79
22964;BME280;11648;49.306;6.934;2023-12-07T06:24:24;98833.84;;;7.98;65.81
22964;BME280;11648;49.306;6.934;2023-12-07T06:26:51;98833.00;;;8.01;65.54
22964;BME280;11648;49.306;6.934;2023-12-07T06:29:18;98833.84;;;7.98;65.40
22964;BME280;11648;49.306;6.934;2023-12-07T06:31:45;98837.31;;;7.95;65.88
22964;BME280;11648;49.306;6.934;2023-12-07T06:34:12;98840.94;;;8.17;65.23
22964;BME280;11648;49.306;6.934;2023-12-07T06:36:39;98842.69;;;8.23;64.71
22964;BME280;11648;49.306;6.934;2023-12-07T06:39:06;98842.78;;;8.29;64.78
22964;BME280;11648;49.306;6.934;2023-12-07T06:41:33;98851.53;;;8.34;65.07
22964;BME280;11648;49.306;6.934;2023-12-07T06:44:00;98837.38;;;8.03;65.18
22964;BME280;11648;49.306;6.934;2023-12-07T06:46:27;98843.53;;;8.16;64.32
22964;BME280;11648;49.306;6.934;2023-12-07T06:48:54;98847.97;;;8.24;64.56
22964;BME280;11648;49.306;6.934;2023-12-07T06:51:21;98854.94;;;8.24;64.39
22964;BME280;11648;49.306;6.934;2023-12-07T06:53:49;98847.09;;;8.22;64.25
22964;BME280;11648;49.306;6.934;2023-12-07T06:56:16;98849.69;;;8.21;64.60
22964;BME280;11648;49.306;6.934;2023-12-07T06:58:43;98839.19;;;8.18;64.40
22964;BME280;11648;49.306;6.934;2023-12-07T07:01:10;98841.03;;;8.37;63.58
22964;BME280;11648;49.306;6.934;2023-12-07T07:03:37;98840.06;;;8.18;63.86
22964;BME280;11648;49.306;6.934;2023-12-07T07:06:04;98823.50;;;8.22;64.11
22964;BME280;11648;49.306;6.934;2023-12-07T07:08:31;98822.56;;;8.16;64.14
22964;BME280;11648;49.306;6.934;2023-12-07T07:10:58;98811.25;;;8.26;63.70
22964;BME280;11648;49.306;6.934;2023-12-07T07:13:25;98819.00;;;8.00;63.99
22964;BME280;11648;49.306;6.934;2023-12-07T07:15:52;98816.44;;;8.14;63.77
22964;BME280;11648;49.306;6.934;2023-12-07T07:18:19;98831.00;;;7.57;65.37
22964;BME280;11648;49.306;6.934;2023-12-07T07:20:47;98820.59;;;7.71;65.18
22964;BME280;11648;49.306;6.934;2023-12-07T07:23:14;98822.47;;;7.96;64.35
22964;BME280;11648;49.306;6.934;2023-12-07T07:25:41;98812.06;;;8.11;64.00
22964;BME280;11648;49.306;6.934;2023-12-07T07:28:08;98820.72;;;7.93;64.76
22964;BME280;11648;49.306;6.934;2023-12-07T07:30:35;98814.56;;;7.82;64.86
22964;BME280;11648;49.306;6.934;2023-12-07T07:33:02;98813.59;;;7.71;65.57
22964;BME280;11648;49.306;6.934;2023-12-07T07:35:29;98816.34;;;7.89;64.97
22964;BME280;11648;49.306;6.934;2023-12-07T07:37:56;98820.75;;;8.01;64.82
22964;BME280;11648;49.306;6.934;2023-12-07T07:40:23;98810.22;;;7.95;65.37
22964;BME280;11648;49.306;6.934;2023-12-07T07:42:51;98811.94;;;7.82;65.28
22964;BME280;11648;49.306;6.934;2023-12-07T07:45:18;98803.16;;;7.80;65.45
22964;BME280;11648;49.306;6.934;2023-12-07T07:47:45;98808.47;;;7.89;64.99
22964;BME280;11648;49.306;6.934;2023-12-07T07:50:12;98818.91;;;7.79;65.31
22964;BME280;11648;49.306;6.934;2023-12-07T07:52:39;98818.03;;;7.84;64.90
22964;BME280;11648;49.306;6.934;2023-12-07T07:55:08;98814.63;;;7.96;64.66
22964;BME280;11648;49.306;6.934;2023-12-07T07:57:35;98814.63;;;7.99;64.26
22964;BME280;11648;49.306;6.934;2023-12-07T08:00:02;98812.06;;;8.08;64.26
22964;BME280;11648;49.306;6.934;2023-12-07T08:02:31;98806.78;;;8.01;64.16
22964;BME280;11648;49.306;6.934;2023-12-07T08:04:58;98805.00;;;7.95;64.62
22964;BME280;11648;49.306;6.934;2023-12-07T08:07:25;98797.19;;;8.04;64.35
22964;BME280;11648;49.306;6.934;2023-12-07T08:09:52;98791.03;;;8.05;64.83
22964;BME280;11648;49.306;6.934;2023-12-07T08:12:19;98781.50;;;8.21;64.36
22964;BME280;11648;49.306;6.934;2023-12-07T08:14:49;98782.38;;;8.18;64.44
22964;BME280;11648;49.306;6.934;2023-12-07T08:17:16;98785.09;;;8.36;63.58
22964;BME280;11648;49.306;6.934;2023-12-07T08:19:43;98785.88;;;8.26;63.68
22964;BME280;11648;49.306;6.934;2023-12-07T08:22:10;98797.22;;;8.16;64.14
22964;BME280;11648;49.306;6.934;2023-12-07T08:24:39;98791.03;;;8.05;63.61
22964;BME280;11648;49.306;6.934;2023-12-07T08:27:06;98786.75;;;8.18;63.56
22964;BME280;11648;49.306;6.934;2023-12-07T08:29:34;98789.41;;;8.22;62.66
22964;BME280;11648;49.306;6.934;2023-12-07T08:32:00;98791.09;;;8.11;62.95
22964;BME280;11648;49.306;6.934;2023-12-07T08:34:29;98794.56;;;8.09;62.92
22964;BME280;11648;49.306;6.934;2023-12-07T08:36:56;98791.13;;;8.19;62.78
22964;BME280;11648;49.306;6.934;2023-12-07T08:39:24;98791.13;;;8.22;62.58
22964;BME280;11648;49.306;6.934;2023-12-07T08:41:52;98787.56;;;8.06;62.93
22964;BME280;11648;49.306;6.934;2023-12-07T08:44:19;98786.75;;;8.18;63.00
22964;BME280;11648;49.306;6.934;2023-12-07T08:46:46;98789.31;;;8.03;63.31
22964;BME280;11648;49.306;6.934;2023-12-07T08:49:13;98781.59;;;8.42;63.14
22964;BME280;11648;49.306;6.934;2023-12-07T08:51:40;98778.16;;;8.67;61.98
22964;BME280;11648;49.306;6.934;2023-12-07T08:54:27;98778.19;;;8.76;62.09
22964;BME280;11648;49.306;6.934;2023-12-07T08:56:55;98779.03;;;8.60;62.52
22964;BME280;11648;49.306;6.934;2023-12-07T08:59:21;98774.66;;;8.70;61.53
22964;BME280;11648;49.306;6.934;2023-12-07T09:01:50;98766.78;;;8.55;61.36
22964;BME280;11648;49.306;6.934;2023-12-07T09:04:17;98767.66;;;8.67;61.56
22964;BME280;11648;49.306;6.934;2023-12-07T09:06:44;98762.44;;;8.87;61.29
22964;BME280;11648;49.306;6.934;2023-12-07T09:09:11;98763.31;;;8.92;61.17
22964;BME280;11648;49.306;6.934;2023-12-07T09:11:38;98769.41;;;8.56;61.15
22964;BME280;11648;49.306;6.934;2023-12-07T09:14:05;98759.81;;;8.91;60.73
22964;BME280;11648;49.306;6.934;2023-12-07T09:16:32;98748.44;;;8.88;60.68
22964;BME280;11648;49.306;6.934;2023-12-07T09:18:59;98744.03;;;9.17;60.46
22964;BME280;11648;49.306;6.934;2023-12-07T09:21:26;98747.56;;;9.03;60.21
22964;BME280;11648;49.306;6.934;2023-12-07T09:23:53;98744.94;;;9.09;60.40
22964;BME280;11648;49.306;6.934;2023-12-07T09:26:20;98744.03;;;9.13;60.36
22964;BME280;11648;49.306;6.934;2023-12-07T09:28:46;98734.44;;;8.93;61.13
22964;BME280;11648;49.306;6.934;2023-12-07T09:31:13;98737.94;;;8.97;60.09
22964;BME280;11648;49.306;6.934;2023-12-07T09:33:42;98721.25;;;9.31;60.38
22964;BME280;11648;49.306;6.934;2023-12-07T09:36:09;98715.16;;;9.29;60.02
22964;BME280;11648;49.306;6.934;2023-12-07T09:38:38;98717.75;;;9.40;60.32
22964;BME280;11648;49.306;6.934;2023-12-07T09:41:05;98721.31;;;9.07;60.01
22964;BME280;11648;49.306;6.934;2023-12-07T09:43:32;98718.66;;;9.24;60.36
22964;BME280;11648;49.306;6.934;2023-12-07T09:45:59;98716.84;;;9.53;59.16
22964;BME280;11648;49.306;6.934;2023-12-07T09:48:26;98709.63;;;10.05;58.66
22964;BME280;11648;49.306;6.934;2023-12-07T09:50:55;98704.34;;;10.07;57.14
22964;BME280;11648;49.306;6.934;2023-12-07T09:53:22;98715.03;;;9.76;58.41
22964;BME280;11648;49.306;6.934;2023-12-07T09:55:49;98710.69;;;9.56;58.30
22964;BME280;11648;49.306;6.934;2023-12-07T09:58:16;98704.50;;;9.70;58.37
22964;BME280;11648;49.306;6.934;2023-12-07T10:00:54;98695.84;;;9.47;59.22
22964;BME280;11648;49.306;6.934;2023-12-07T10:03:23;98700.22;;;9.39;59.16
22964;BME280;11648;49.306;6.934;2023-12-07T10:05:58;98694.09;;;9.43;59.52
22964;BME280;11648;49.306;6.934;2023-12-07T10:08:31;98694.00;;;9.70;59.61
22964;BME280;11648;49.306;6.934;2023-12-07T10:11:09;98687.91;;;9.56;59.16
22964;BME280;11648;49.306;6.934;2023-12-07T10:13:37;98687.88;;;9.64;58.77
22964;BME280;11648;49.306;6.934;2023-12-07T10:16:14;98692.25;;;9.63;59.06
22964;BME280;11648;49.306;6.934;2023-12-07T10:18:46;98697.53;;;9.69;59.09
22964;BME280;11648;49.306;6.934;2023-12-07T10:21:13;98700.09;;;9.80;58.44
22964;BME280;11648;49.306;6.934;2023-12-07T10:23:41;98701.03;;;9.68;58.88
22964;BME280;11648;49.306;6.934;2023-12-07T10:26:16;98692.25;;;9.71;59.27
22964;BME280;11648;49.306;6.934;2023-12-07T10:28:46;98697.56;;;9.54;59.14
22964;BME280;11648;49.306;6.934;2023-12-07T10:31:18;98687.16;;;9.22;59.37
22964;BME280;11648;49.306;6.934;2023-12-07T10:33:52;98681.81;;;9.47;59.96
22964;BME280;11648;49.306;6.934;2023-12-07T10:36:19;98668.56;;;9.78;59.46
22964;BME280;11648;49.306;6.934;2023-12-07T10:38:46;98654.53;;;9.84;58.80
22964;BME280;11648;49.306;6.934;2023-12-07T10:41:18;98642.25;;;9.83;58.02
22964;BME280;11648;49.306;6.934;2023-12-07T10:43:48;98631.63;;;10.06;58.18
22964;BME280;11648;49.306;6.934;2023-12-07T10:46:16;98619.16;;;10.33;57.60
22964;BME280;11648;49.306;6.934;2023-12-07T10:48:44;98620.13;;;10.22;57.57
22964;BME280;11648;49.306;6.934;2023-12-07T10:51:16;98613.78;;;10.47;56.69
22964;BME280;11648;49.306;6.934;2023-12-07T10:53:46;98612.84;;;10.54;56.71
22964;BME280;11648;49.306;6.934;2023-12-07T10:56:18;98620.91;;;10.36;56.63
22964;BME280;11648;49.306;6.934;2023-12-07T10:58:50;98602.03;;;10.86;56.14
22964;BME280;11648;49.306;6.934;2023-12-07T11:01:18;98587.50;;;11.31;54.18
22964;BME280;11648;49.306;6.934;2023-12-07T11:03:49;98581.56;;;11.12;53.81
22964;BME280;11648;49.306;6.934;2023-12-07T11:06:18;98595.94;;;10.79;54.04
22964;BME280;11648;49.306;6.934;2023-12-07T11:08:49;98581.72;;;10.99;54.43
22964;BME280;11648;49.306;6.934;2023-12-07T11:11:27;98577.69;;;11.42;53.58
22964;BME280;11648;49.306;6.934;2023-12-07T11:14:01;98568.03;;;12.07;52.28
22964;BME280;11648;49.306;6.934;2023-12-07T11:16:34;98560.00;;;12.65;50.89
22964;BME280;11648;49.306;6.934;2023-12-07T11:19:03;98555.03;;;13.43;49.38
22964;BME280;11648;49.306;6.934;2023-12-07T11:21:33;98521.56;;;13.80;47.35
22964;BME280;11648;49.306;6.934;2023-12-07T11:24:01;98498.78;;;15.41;43.93
22964;BME280;11648;49.306;6.934;2023-12-07T11:26:28;98474.81;;;17.05;40.39
22964;BME280;11648;49.306;6.934;2023-12-07T11:28:56;98472.81;;;16.62;39.07
22964;BME280;11648;49.306;6.934;2023-12-07T11:31:23;98472.75;;;16.11;39.84
22964;BME280;11648;49.306;6.934;2023-12-07T11:33:53;98476.94;;;16.44;39.94
22964;BME280;11648;49.306;6.934;2023-12-07T11:36:20;98476.47;;;15.77;39.96
22964;BME280;11648;49.306;6.934;2023-12-07T11:41:30;98488.03;;;13.81;44.34
22964;BME280;11648;49.306;6.934;2023-12-07T11:43:59;98497.94;;;13.33;45.46
22964;BME280;11648;49.306;6.934;2023-12-07T11:46:26;98488.56;;;13.58;45.86
22964;BME280;11648;49.306;6.934;2023-12-07T11:48:54;98493.84;;;13.97;45.37
22964;BME280;11648;49.306;6.934;2023-12-07T11:51:21;98479.81;;;14.95;43.03
22964;BME280;11648;49.306;6.934;2023-12-07T11:53:48;98473.91;;;16.02;41.04
22964;BME280;11648;49.306;6.934;2023-12-07T11:56:17;98461.09;;;16.15;40.12
22964;BME280;11648;49.306;6.934;2023-12-07T11:58:47;98443.34;;;16.68;39.07
22964;BME280;11648;49.306;6.934;2023-12-07T12:01:16;98433.38;;;17.21;37.57
22964;BME280;11648;49.306;6.934;2023-12-07T12:03:44;98425.59;;;17.85;36.66
22964;BME280;11648;49.306;6.934;2023-12-07T12:06:11;98414.03;;;18.88;34.99
22964;BME280;11648;49.306;6.934;2023-12-07T12:08:40;98417.38;;;19.12;34.59
22964;BME280;11648;49.306;6.934;2023-12-07T12:11:08;98441.97;;;19.00;33.97
22964;BME280;11648;49.306;6.934;2023-12-07T12:13:36;98456.13;;;18.82;34.27
22964;BME280;11648;49.306;6.934;2023-12-07T12:16:04;98470.97;;;18.03;34.87
22964;BME280;11648;49.306;6.934;2023-12-07T12:18:33;98473.13;;;17.25;36.40
22964;BME280;11648;49.306;6.934;2023-12-07T12:21:01;98471.66;;;16.43;38.37
22964;BME280;11648;49.306;6.934;2023-12-07T12:23:28;98471.53;;;15.95;38.95
22964;BME280;11648;49.306;6.934;2023-12-07T12:25:56;98472.44;;;15.35;40.66
22964;BME280;11648;49.306;6.934;2023-12-07T12:28:24;98488.66;;;14.63;42.13
22964;BME280;11648;49.306;6.934;2023-12-07T12:30:51;98492.19;;;13.93;43.48
22964;BME280;11648;49.306;6.934;2023-12-07T12:33:19;98490.19;;;14.02;43.32
22964;BME280;11648;49.306;6.934;2023-12-07T12:35:46;98496.63;;;13.91;43.42
22964;BME280;11648;49.306;6.934;2023-12-07T12:38:13;98511.84;;;13.43;44.83
22964;BME280;11648;49.306;6.934;2023-12-07T12:40:54;98512.00;;;12.91;46.43
22964;BME280;11648;49.306;6.934;2023-12-07T12:43:21;98504.00;;;12.94;46.10
22964;BME280;11648;49.306;6.934;2023-12-07T12:45:53;98501.06;;;12.64;47.34
22964;BME280;11648;49.306;6.934;2023-12-07T12:48:32;98491.41;;;12.13;47.57
22964;BME280;11648;49.306;6.934;2023-12-07T12:51:20;98489.75;;;11.49;49.10
22964;BME280;11648;49.306;6.934;2023-12-07T12:53:48;98471.91;;;11.66;48.90
22964;BME280;11648;49.306;6.934;2023-12-07T12:56:18;98461.00;;;11.28;49.17
22964;BME280;11648;49.306;6.934;2023-12-07T12:58:46;98464.06;;;10.99;50.48
22964;BME280;11648;49.306;6.934;2023-12-07T13:01:13;98461.19;;;11.16;50.15
22964;BME280;11648;49.306;6.934;2023-12-07T13:03:40;98458.72;;;11.05;50.30
22964;BME280;11648;49.306;6.934;2023-12-07T13:06:07;98457.53;;;11.26;50.23
22964;BME280;11648;49.306;6.934;2023-12-07T13:08:34;98454.00;;;10.57;51.00
22964;BME280;11648;49.306;6.934;2023-12-07T13:11:01;98459.19;;;10.64;51.07
22964;BME280;11648;49.306;6.934;2023-12-07T13:13:28;98468.75;;;10.73;51.08
22964;BME280;11648;49.306;6.934;2023-12-07T13:15:55;98456.16;;;10.98;50.63
22964;BME280;11648;49.306;6.934;2023-12-07T13:18:22;98442.38;;;10.77;50.98
22964;BME280;11648;49.306;6.934;2023-12-07T13:20:49;98413.59;;;10.61;52.11